Time;durP1;ratioP1;P1;durP2;ratioP2;P2;SDS_P1;SDS_P2;PMS_P1;PMS_P2;Temp;Humidity;BMP_temperature;BMP_pressure;BME280_temperature;BME280_humidity;BME280_pressure;Samples;Min_cycle;Max_cycle;Signal;HPM_P1;HPM_P2
2023/04/20 07:23:10;;;;;;;6.88;5.30;;;;;;;-145.79;50.92;78481.75;5279340;28;20395;-74
2023/04/20 07:25:42;;;;;;;8.27;4.90;;;;;;;-145.79;55.31;78445.72;5279417;28;20392;-75
2023/04/20 07:28:13;;;;;;;8.32;5.63;;;;;;;-145.79;53.36;78458.44;5279514;28;20036;-75
2023/04/20 07:30:45;;;;;;;5.93;4.93;;;;;;;-145.79;51.92;78449.94;5268192;28;20444;-76
2023/04/20 07:33:17;;;;;;;8.68;5.35;;;;;;;-145.79;52.46;78454.19;5274625;28;20041;-76
2023/04/20 07:35:48;;;;;;;7.93;4.95;;;;;;;-145.79;51.77;78445.72;5279886;28;20040;-77
2023/04/20 07:38:20;;;;;;;6.68;4.63;;;;;;;-145.79;53.42;78435.09;5279251;28;20025;-76
2023/04/20 07:40:51;;;;;;;5.63;4.45;;;;;;;-145.79;53.74;78422.38;5279381;28;20028;-76
2023/04/20 07:43:22;;;;;;;10.00;5.10;;;;;;;-145.79;54.63;78399.06;5278872;28;20032;-76
2023/04/20 07:45:54;;;;;;;4.82;4.32;;;;;;;-145.79;51.42;78424.50;5278660;28;20025;-76
2023/04/20 07:48:28;;;;;;;5.07;4.50;;;;;;;-145.79;52.87;78407.53;5278774;28;20557;-77
2023/04/20 07:51:00;;;;;;;6.55;5.30;;;;;;;-145.79;53.95;78401.19;5279263;28;20055;-74
2023/04/20 07:53:34;;;;;;;21.77;17.40;;;;;;;-145.79;52.18;78399.06;5279317;28;20025;-77
2023/04/20 07:56:06;;;;;;;35.67;8.27;;;;;;;-145.79;50.92;78437.22;5279806;28;20433;-75
2023/04/20 07:58:39;;;;;;;13.07;5.38;;;;;;;-145.79;53.18;78386.34;5278878;28;20048;-75
2023/04/20 08:01:10;;;;;;;9.57;5.30;;;;;;;-145.79;53.20;78403.31;5278566;28;20372;-74
2023/04/20 08:03:42;;;;;;;5.32;4.63;;;;;;;-145.79;50.15;78401.19;5278148;28;20041;-74
2023/04/20 08:06:13;;;;;;;6.32;5.13;;;;;;;-145.79;49.92;78386.34;5278331;28;20074;-73
2023/04/20 08:08:44;;;;;;;6.93;5.03;;;;;;;-145.79;50.39;78394.81;5276799;28;20063;-74
2023/04/20 08:11:15;;;;;;;12.15;5.28;;;;;;;-145.79;52.23;78373.63;5278223;28;20364;-73
2023/04/20 08:13:47;;;;;;;10.07;6.10;;;;;;;-145.79;52.24;78369.38;5270757;28;20092;-76
2023/04/20 08:16:18;;;;;;;5.97;4.30;;;;;;;-145.79;54.76;78367.25;5274645;28;20059;-78
2023/04/20 08:18:49;;;;;;;5.13;4.55;;;;;;;-145.79;53.62;78350.31;5276832;28;20572;-75
2023/04/20 08:21:22;;;;;;;8.77;4.70;;;;;;;-145.79;52.76;78352.44;5270945;28;20042;-76
2023/04/20 08:23:53;;;;;;;10.70;4.93;;;;;;;-145.79;51.65;78356.66;5257624;28;20040;-76
2023/04/20 08:26:26;;;;;;;6.20;4.07;;;;;;;-145.79;51.06;78350.31;5257384;28;20453;-75
2023/04/20 08:29:01;;;;;;;7.65;4.50;;;;;;;-145.79;53.58;78322.75;5258131;28;20068;-75
2023/04/20 08:31:32;;;;;;;6.60;4.57;;;;;;;-145.79;53.03;78320.63;5258171;28;20111;-73
2023/04/20 08:34:03;;;;;;;5.50;4.38;;;;;;;-145.79;50.41;78322.75;5247233;28;20104;-74
2023/04/20 08:36:35;;;;;;;5.10;4.32;;;;;;;-145.79;52.50;78316.38;5243831;28;20384;-74
2023/04/20 08:39:12;;;;;;;6.22;4.50;;;;;;;-145.79;50.59;78310.03;5257084;28;20037;-74
2023/04/20 08:41:43;;;;;;;4.93;4.18;;;;;;;-145.79;50.28;78305.78;5261441;28;20033;-74
2023/04/20 08:44:14;;;;;;;7.43;4.28;;;;;;;-145.79;52.51;78290.94;5255669;28;20036;-74
2023/04/20 08:46:47;;;;;;;5.35;3.95;;;;;;;-145.79;51.46;78276.09;5245364;28;20107;-75
2023/04/20 08:49:20;;;;;;;4.25;3.80;;;;;;;-145.79;53.43;78250.66;5252633;28;20167;-75
2023/04/20 08:51:51;;;;;;;4.72;3.92;;;;;;;-145.79;51.14;78273.97;5262911;28;20029;-75
2023/04/20 08:54:22;;;;;;;5.75;4.35;;;;;;;-145.79;51.71;78259.13;5263770;28;20017;-74
2023/04/20 08:56:54;;;;;;;7.45;4.45;;;;;;;-145.79;49.60;78290.94;5243948;28;20029;-75
2023/04/20 08:59:26;;;;;;;5.22;4.10;;;;;;;-145.79;51.38;78259.13;5248049;28;20031;-76
2023/04/20 09:02:15;;;;;;;8.07;6.45;;;;;;;-145.79;49.41;78278.22;5261716;28;20443;-73
2023/04/20 09:04:47;;;;;;;4.00;3.50;;;;;;;-145.79;49.15;78242.19;5263077;28;20459;-74
2023/04/20 09:07:20;;;;;;;5.63;4.55;;;;;;;-145.79;51.59;78182.81;5262159;28;20083;-75
2023/04/20 09:09:58;;;;;;;4.70;4.18;;;;;;;-145.79;50.31;78161.63;5261208;28;20029;-75
2023/04/20 09:12:40;;;;;;;3.80;3.38;;;;;;;-145.79;47.30;78167.97;5260288;28;20057;-73
2023/04/20 09:15:23;;;;;;;4.88;4.13;;;;;;;-145.79;48.63;78172.22;5253222;28;20516;-76
2023/04/20 09:17:55;;;;;;;5.57;4.93;;;;;;;-145.79;48.71;78212.50;5260057;28;20033;-75
2023/04/20 09:20:30;;;;;;;5.30;4.45;;;;;;;-145.79;48.45;78210.38;5262585;28;20384;-75
2023/04/20 09:23:12;;;;;;;;;;;;;;;-145.79;48.74;78193.41;5263428;28;20060;-75
2023/04/20 09:25:45;;;;;;;6.68;4.38;;;;;;;-145.79;49.37;78220.97;5262699;28;19924;-76
2023/04/20 09:28:18;;;;;;;4.75;3.92;;;;;;;-145.79;49.92;78208.25;5263764;28;20029;-77
2023/04/20 09:30:50;;;;;;;4.97;3.47;;;;;;;-145.79;51.58;78189.19;5246533;28;20051;-78
2023/04/20 09:33:29;;;;;;;4.57;4.00;;;;;;;-145.79;50.12;78174.34;5263898;28;20430;-78
2023/04/20 09:36:04;;;;;;;5.18;3.85;;;;;;;-145.79;50.28;78170.09;5256148;28;20033;-76
2023/04/20 09:38:35;;;;;;;3.50;3.20;;;;;;;-145.79;47.35;78170.09;5263087;28;20043;-77
2023/04/20 09:41:07;;;;;;;4.70;3.78;;;;;;;-145.79;46.97;78182.81;5262861;28;20025;-77
2023/04/20 09:43:39;;;;;;;4.60;3.50;;;;;;;-145.79;46.48;78208.25;5262569;28;20025;-78
2023/04/20 09:46:13;;;;;;;6.13;3.53;;;;;;;-145.79;46.90;78214.63;5254387;28;20025;-78
2023/04/20 09:48:45;;;;;;;5.13;3.58;;;;;;;-145.79;48.73;78182.81;5263413;28;20538;-74
2023/04/20 09:51:17;;;;;;;3.80;3.22;;;;;;;-145.79;48.59;78189.19;5262702;28;20033;-75
2023/04/20 09:53:48;;;;;;;3.72;3.42;;;;;;;-145.79;48.99;78170.09;5261047;28;20055;-76
2023/04/20 09:56:20;;;;;;;4.93;3.45;;;;;;;-145.79;50.47;78170.09;5262671;28;20075;-76
2023/04/20 09:58:53;;;;;;;4.88;3.90;;;;;;;-145.79;49.48;78127.69;5246003;28;20108;-76
2023/04/20 10:01:25;;;;;;;5.57;3.20;;;;;;;-145.79;48.99;78100.13;5251452;28;20088;-75
2023/04/20 10:04:01;;;;;;;4.40;3.70;;;;;;;-145.79;47.76;78091.66;5259028;28;20655;-76
2023/04/20 10:06:34;;;;;;;6.75;3.30;;;;;;;-145.79;46.29;78089.53;5261947;28;20110;-76
2023/04/20 10:09:07;;;;;;;4.28;3.53;;;;;;;-145.79;46.60;78076.81;5262000;28;20021;-77
2023/04/20 10:11:45;;;;;;;5.30;3.42;;;;;;;-145.79;45.58;78093.78;5252348;28;20552;-76
2023/04/20 10:14:22;;;;;;;4.55;3.58;;;;;;;-145.79;45.65;78108.63;5241651;28;20025;-76
2023/04/20 10:17:07;;;;;;;4.80;3.72;;;;;;;-145.79;48.28;78066.22;5257529;28;20040;-77
2023/04/20 10:19:43;;;;;;;3.95;3.55;;;;;;;-145.79;47.14;78110.72;5242983;28;20036;-76
2023/04/20 10:22:32;;;;;;;7.38;4.00;;;;;;;-145.79;48.21;78127.69;5247880;28;20053;-78
2023/04/20 10:25:16;;;;;;;5.28;3.78;;;;;;;-145.79;47.03;78123.44;5254114;28;20032;-78
2023/04/20 10:27:55;;;;;;;4.78;3.85;;;;;;;-145.79;49.72;78098.00;5261177;28;20464;-78
2023/04/20 10:30:28;;;;;;;5.93;4.88;;;;;;;-145.79;46.36;78136.19;5243855;28;20116;-78
2023/04/20 10:33:03;;;;;;;5.35;4.57;;;;;;;-145.79;47.54;78114.97;5258704;28;20033;-78
2023/04/20 10:35:46;;;;;;;15.00;9.50;;;;;;;-145.79;47.55;78131.94;5249536;28;20126;-78
2023/04/20 10:38:46;;;;;;;8.98;4.68;;;;;;;-145.79;49.49;78123.44;5253873;28;20047;-79
2023/04/20 10:41:18;;;;;;;5.72;3.90;;;;;;;-145.79;47.97;78134.06;5242167;28;20033;-79
2023/04/20 10:43:49;;;;;;;4.80;3.83;;;;;;;-145.79;47.52;78119.22;5260664;28;20040;-78
2023/04/20 10:46:23;;;;;;;5.72;3.83;;;;;;;-145.79;47.62;78117.09;5260685;28;20082;-80
2023/04/20 10:49:00;;;;;;;5.38;4.72;;;;;;;-145.79;47.30;78083.19;5245807;28;20452;-78
2023/04/20 10:51:35;;;;;;;4.85;4.10;;;;;;;-145.79;49.26;78042.91;5240697;28;20456;-78
2023/04/20 10:54:07;;;;;;;3.80;3.33;;;;;;;-145.79;46.64;78047.13;5241213;28;20067;-80
2023/04/20 10:56:46;;;;;;;6.28;4.00;;;;;;;-145.79;46.83;78051.38;5241646;28;20030;-80
2023/04/20 10:59:22;;;;;;;4.63;3.90;;;;;;;-145.79;47.10;78057.72;5241587;28;20025;-79
2023/04/20 11:01:54;;;;;;;5.72;4.38;;;;;;;-145.79;46.99;78074.69;5241162;28;20080;-75
2023/04/20 11:04:33;;;;;;;6.40;3.95;;;;;;;-145.79;47.74;78038.66;5240793;28;20048;-75
2023/04/20 11:07:08;;;;;;;6.10;3.95;;;;;;;-145.79;46.69;78038.66;5240969;28;20411;-75
2023/04/20 11:09:41;;;;;;;5.28;3.85;;;;;;;-145.79;50.17;78021.69;5240282;28;20025;-78
2023/04/20 11:12:13;;;;;;;5.30;3.95;;;;;;;-145.79;48.67;78047.13;5256158;28;20086;-76
2023/04/20 11:14:54;;;;;;;4.85;4.22;;;;;;;-145.79;49.52;78074.69;5260167;28;20044;-78
2023/04/20 11:17:35;;;;;;;5.25;4.32;;;;;;;-145.79;47.41;78098.00;5256597;28;20025;-77
2023/04/20 11:20:09;;;;;;;6.32;3.85;;;;;;;-145.79;51.64;78051.38;5261550;28;20036;-78
2023/04/20 11:22:42;;;;;;;4.65;4.15;;;;;;;-145.79;48.48;78085.28;5261237;28;20049;-77
2023/04/20 11:25:13;;;;;;;6.38;4.25;;;;;;;-145.79;48.77;78083.19;5261587;28;20022;-78
2023/04/20 11:27:45;;;;;;;6.00;4.70;;;;;;;-145.79;48.24;78057.72;5258402;28;20091;-77
2023/04/20 11:30:16;;;;;;;6.07;4.32;;;;;;;-145.79;48.38;78064.09;5253845;28;20036;-76
2023/04/20 11:32:53;;;;;;;5.32;4.50;;;;;;;-145.79;50.63;78017.44;5252582;28;20025;-77
2023/04/20 11:35:24;;;;;;;5.95;4.38;;;;;;;-145.79;48.77;78025.94;5240608;28;20056;-79
2023/04/20 11:37:56;;;;;;;8.75;7.85;;;;;;;-145.79;49.86;78030.19;5243543;28;20033;-79
2023/04/20 11:40:27;;;;;;;7.60;6.90;;;;;;;-145.79;48.90;78038.66;5241168;28;20163;-79
2023/04/20 11:42:59;;;;;;;21.30;16.05;;;;;;;-145.79;48.71;78030.19;5245328;28;20033;-78
2023/04/20 11:45:34;;;;;;;7.15;5.47;;;;;;;-145.79;47.93;78059.84;5252650;28;20030;-77
2023/04/20 11:48:40;;;;;;;;;;;;;;;;;;;;;
2023/04/20 11:51:13;;;;;;;7.13;5.38;;;;;;;-145.79;50.86;78021.69;5205862;28;20472;-76
2023/04/20 11:53:47;;;;;;;5.75;5.20;;;;;;;-145.79;48.63;78051.38;5240935;28;20051;-76
2023/04/20 11:56:18;;;;;;;6.90;6.15;;;;;;;-145.79;48.81;78025.94;5240507;28;20022;-76
2023/04/20 11:58:49;;;;;;;4.70;4.28;;;;;;;-145.79;46.83;78017.44;5246883;28;20375;-76
2023/04/20 12:01:21;;;;;;;5.85;5.35;;;;;;;-145.79;47.27;77987.78;5260797;28;20024;-76
2023/04/20 12:03:54;;;;;;;6.30;4.43;;;;;;;-145.79;47.15;77962.34;5240506;28;20112;-76
2023/04/20 12:06:26;;;;;;;6.40;5.13;;;;;;;-145.79;49.81;77977.19;5240421;28;20422;-77
2023/04/20 12:08:57;;;;;;;7.78;4.85;;;;;;;-145.79;49.48;78021.69;5242365;28;20115;-75
2023/04/20 12:11:28;;;;;;;7.32;4.93;;;;;;;-145.79;53.28;78038.66;5250227;28;20025;-74
2023/04/20 12:14:00;;;;;;;7.35;5.68;;;;;;;-145.79;53.62;78072.56;5264472;28;20104;-76
2023/04/20 12:16:31;;;;;;;5.95;5.32;;;;;;;-145.79;55.64;78119.22;5250898;28;20026;-77
2023/04/20 12:19:02;;;;;;;7.55;5.40;;;;;;;-145.79;57.83;78127.69;5244103;28;20071;-77
2023/04/20 12:21:34;;;;;;;8.18;5.97;;;;;;;-145.79;58.37;78121.34;5243665;28;20556;-78
2023/04/20 12:24:06;;;;;;;7.22;5.43;;;;;;;-145.79;57.42;78121.34;5244175;28;20036;-77
2023/04/20 12:26:37;;;;;;;6.03;5.05;;;;;;;-145.79;58.35;78091.66;5243364;28;20431;-77
2023/04/20 12:29:09;;;;;;;7.30;6.22;;;;;;;-145.79;59.09;78072.56;5243823;28;20022;-75
2023/04/20 12:31:41;;;;;;;6.88;6.28;;;;;;;-145.79;59.22;78034.41;5242663;28;20176;-76
2023/04/20 12:34:12;;;;;;;7.40;5.93;;;;;;;-145.79;58.44;77987.78;5253063;28;20040;-76
2023/04/20 12:36:43;;;;;;;5.53;5.03;;;;;;;-145.79;56.42;77966.56;5248462;28;20025;-76
2023/04/20 12:39:15;;;;;;;7.00;5.32;;;;;;;-145.79;53.00;77992.00;5255284;28;20051;-76
2023/04/20 12:41:46;;;;;;;5.68;5.13;;;;;;;-145.79;52.61;77975.06;5258025;28;20051;-78
2023/04/20 12:44:20;;;;;;;5.50;4.97;;;;;;;-145.79;52.15;77941.13;5247312;28;20029;-78
2023/04/20 12:46:51;;;;;;;4.78;4.38;;;;;;;-145.79;50.66;77926.28;5243945;28;20033;-77
2023/04/20 12:49:23;;;;;;;5.25;4.72;;;;;;;-145.79;49.25;77964.47;5243659;28;20033;-77
2023/04/20 12:51:54;;;;;;;4.60;4.20;;;;;;;-145.79;49.42;77989.91;5244253;28;20021;-79
2023/04/20 12:54:25;;;;;;;7.35;6.35;;;;;;;-145.79;51.60;77919.94;5253793;28;20076;-77
2023/04/20 12:56:56;;;;;;;6.10;5.53;;;;;;;-145.79;49.48;77902.97;5258694;28;20025;-77
2023/04/20 12:59:28;;;;;;;5.32;4.82;;;;;;;-145.79;47.83;77911.47;5255715;28;20029;-76
2023/04/20 13:01:59;;;;;;;5.43;4.93;;;;;;;-145.79;47.13;77886.00;5270785;28;20032;-75
2023/04/20 13:04:30;;;;;;;6.07;5.50;;;;;;;-145.79;47.52;77894.50;5274227;28;20035;-76
2023/04/20 13:07:04;;;;;;;5.60;5.10;;;;;;;-145.79;50.60;77881.78;5261418;28;20109;-79
2023/04/20 13:09:36;;;;;;;7.43;6.72;;;;;;;-145.79;48.19;77913.56;5250560;28;20123;-76
2023/04/20 13:12:08;;;;;;;6.88;5.57;;;;;;;-145.79;49.07;77936.91;5279245;28;20117;-75
2023/04/20 13:14:40;;;;;;;7.13;5.25;;;;;;;-145.79;51.01;77953.84;5241941;28;20492;-76
2023/04/20 13:17:11;;;;;;;6.82;6.13;;;;;;;-145.79;49.46;77975.06;5248423;28;20039;-75
2023/04/20 13:19:46;;;;;;;5.70;4.95;;;;;;;-145.79;50.51;77968.69;5262353;28;20101;-75
2023/04/20 13:22:17;;;;;;;7.40;6.13;;;;;;;-145.79;49.48;77983.53;5244543;28;20064;-75
2023/04/20 13:24:48;;;;;;;7.25;6.60;;;;;;;-145.79;48.79;77968.69;5241891;28;20025;-76
2023/04/20 13:27:19;;;;;;;5.95;5.20;;;;;;;-145.79;48.37;77932.66;5249112;28;20356;-76
2023/04/20 13:29:51;;;;;;;7.22;6.55;;;;;;;-145.79;48.00;77894.50;5247330;28;20388;-76
2023/04/20 13:32:22;;;;;;;6.93;5.25;;;;;;;-145.79;47.45;77858.47;5241979;28;20044;-76
2023/04/20 13:34:53;;;;;;;6.53;5.72;;;;;;;-145.79;48.42;77820.31;5251402;28;20487;-76
2023/04/20 13:37:25;;;;;;;7.72;5.93;;;;;;;-145.79;47.52;77847.84;5250742;28;20025;-76
2023/04/20 13:39:57;;;;;;;6.45;5.07;;;;;;;-145.79;45.97;77890.25;5247916;28;20062;-76
2023/04/20 13:42:28;;;;;;;8.88;7.43;;;;;;;-145.79;48.88;77888.13;5242552;28;20040;-76
2023/04/20 13:44:59;;;;;;;6.55;5.93;;;;;;;-145.79;46.80;77902.97;5253151;28;20025;-77
2023/04/20 13:47:31;;;;;;;7.18;6.47;;;;;;;-145.79;47.97;77922.06;5263620;28;20021;-77
2023/04/20 13:50:04;;;;;;;6.05;5.50;;;;;;;-145.79;47.40;77919.94;5261910;28;20039;-77
2023/04/20 13:52:35;;;;;;;6.82;6.20;;;;;;;-145.79;48.82;77924.19;5263181;28;20060;-78
2023/04/20 13:55:07;;;;;;;6.70;6.10;;;;;;;-145.79;49.87;77894.50;5263165;28;20060;-78
2023/04/20 13:57:38;;;;;;;7.38;6.65;;;;;;;-145.79;47.94;77924.19;5262562;28;20036;-75
2023/04/20 14:00:10;;;;;;;9.52;7.35;;;;;;;-145.79;47.32;77911.47;5257505;28;20139;-73
2023/04/20 14:02:41;;;;;;;6.55;5.95;;;;;;;-145.79;46.24;77922.06;5247837;28;20466;-77
2023/04/20 14:05:12;;;;;;;5.03;4.53;;;;;;;-145.79;50.20;77886.00;5257426;28;20025;-76
2023/04/20 14:07:44;;;;;;;6.38;5.70;;;;;;;-145.79;50.39;77871.19;5252492;28;20112;-76
2023/04/20 14:10:15;;;;;;;6.85;5.55;;;;;;;-145.79;46.63;77915.69;5246707;28;20095;-76
2023/04/20 14:12:47;;;;;;;5.20;4.60;;;;;;;-145.79;51.41;77860.56;5259248;28;20379;-75
2023/04/20 14:15:18;;;;;;;6.20;5.10;;;;;;;-145.79;48.24;77881.78;5252498;28;20031;-76
2023/04/20 14:17:50;;;;;;;7.70;6.75;;;;;;;-145.79;46.45;77902.97;5259426;28;20057;-76
2023/04/20 14:20:22;;;;;;;8.48;6.95;;;;;;;-145.79;45.91;77892.38;5252109;28;20021;-76
2023/04/20 14:22:53;;;;;;;5.90;5.40;;;;;;;-145.79;47.91;77871.19;5260105;28;20068;-76
2023/04/20 14:25:24;;;;;;;6.60;6.00;;;;;;;-145.79;45.42;77860.56;5241153;28;20094;-76
2023/04/20 14:27:56;;;;;;;9.68;8.70;;;;;;;-145.79;46.53;77830.91;5242103;28;20030;-74
2023/04/20 14:30:27;;;;;;;6.13;5.53;;;;;;;-145.79;43.65;77856.34;5247037;28;20035;-76
2023/04/20 14:32:59;;;;;;;5.95;5.40;;;;;;;-145.79;44.20;77862.69;5261635;28;20092;-78
2023/04/20 14:35:30;;;;;;;6.22;5.63;;;;;;;-145.79;43.93;77845.75;5253491;28;20033;-78
2023/04/20 14:38:02;;;;;;;7.85;7.05;;;;;;;-145.79;44.48;77837.25;5256139;28;20032;-79
2023/04/20 14:40:33;;;;;;;6.82;5.75;;;;;;;-145.79;46.79;77811.81;5251705;28;20135;-78
2023/04/20 14:43:04;;;;;;;7.70;5.82;;;;;;;-145.79;44.75;77828.78;5243911;28;20033;-77
2023/04/20 14:45:38;;;;;;;8.63;5.63;;;;;;;-145.79;43.49;77847.84;5260767;28;20472;-77
2023/04/20 14:48:10;;;;;;;6.00;5.50;;;;;;;-145.79;43.83;77843.63;5262341;28;20025;-77
2023/04/20 14:50:41;;;;;;;6.28;5.65;;;;;;;-145.79;43.59;77835.13;5262134;28;20341;-79
2023/04/20 14:53:13;;;;;;;5.88;5.25;;;;;;;-145.79;43.77;77860.56;5247782;28;20073;-78
2023/04/20 14:55:44;;;;;;;7.78;6.10;;;;;;;-145.79;43.47;77852.09;5240878;28;20025;-78
2023/04/20 14:58:17;;;;;;;6.95;6.03;;;;;;;-145.79;43.41;77871.19;5242233;28;20464;-79
2023/04/20 15:00:50;;;;;;;6.68;5.97;;;;;;;-145.79;43.89;77864.81;5240877;28;20083;-79
2023/04/20 15:03:21;;;;;;;6.65;5.95;;;;;;;-145.79;43.81;77873.31;5240701;28;20033;-78
2023/04/20 15:05:59;;;;;;;5.88;5.28;;;;;;;-145.79;43.79;77860.56;5241773;28;20032;-79
2023/04/20 15:08:32;;;;;;;7.55;6.38;;;;;;;-145.79;43.85;77866.94;5244602;28;20518;-79
2023/04/20 15:11:04;;;;;;;6.13;5.63;;;;;;;-145.79;46.50;77854.22;5257241;28;20064;-79
2023/04/20 15:13:39;;;;;;;6.40;5.80;;;;;;;-145.79;45.76;77839.38;5261677;28;20028;-79
2023/04/20 15:16:11;;;;;;;7.28;6.60;;;;;;;-145.79;43.77;77845.75;5261993;28;20460;-79
2023/04/20 15:18:42;;;;;;;5.32;4.82;;;;;;;-145.79;45.51;77824.53;5262550;28;20033;-79
2023/04/20 15:21:15;;;;;;;6.50;5.90;;;;;;;-145.79;43.50;77843.63;5260809;28;20060;-78
2023/04/20 15:23:46;;;;;;;6.40;5.80;;;;;;;-145.79;43.25;77856.34;5260703;28;20432;-78
2023/04/20 15:26:17;;;;;;;9.63;6.15;;;;;;;-145.79;43.59;77835.13;5258541;28;20040;-78
2023/04/20 15:28:50;;;;;;;6.95;6.25;;;;;;;-145.79;43.66;77847.84;5264137;28;20021;-78
2023/04/20 15:31:21;;;;;;;22.73;20.17;;;;;;;-145.79;44.11;77828.78;5262080;28;20028;-76
2023/04/20 15:33:52;;;;;;;7.00;6.30;;;;;;;-145.79;43.19;77822.41;5261355;28;20047;-77
2023/04/20 15:36:26;;;;;;;8.07;6.78;;;;;;;-145.79;43.93;77801.22;5260182;28;20115;-79
2023/04/20 15:38:57;;;;;;;6.50;5.68;;;;;;;-145.79;43.72;77796.97;5260387;28;20464;-78
2023/04/20 15:41:28;;;;;;;6.57;5.70;;;;;;;-145.79;44.35;77799.09;5260556;28;20033;-78
2023/04/20 15:44:00;;;;;;;6.53;5.93;;;;;;;-145.79;44.44;77818.19;5257687;28;20108;-79
2023/04/20 15:46:31;;;;;;;7.00;5.18;;;;;;;-145.79;46.39;77805.47;5255461;28;20144;-78
2023/04/20 15:49:02;;;;;;;6.35;5.85;;;;;;;-145.79;44.74;77822.41;5263790;28;20131;-75
2023/04/20 15:51:37;;;;;;;11.35;6.70;;;;;;;-145.79;43.92;77826.66;5265359;28;20078;-76
2023/04/20 15:54:08;;;;;;;8.10;6.13;;;;;;;-145.79;43.80;77833.03;5265760;28;20033;-75
2023/04/20 15:56:40;;;;;;;7.00;6.38;;;;;;;-145.79;43.37;77830.91;5264575;28;20023;-79
2023/04/20 15:59:11;;;;;;;7.03;6.22;;;;;;;-145.79;44.29;77835.13;5265557;28;20021;-77
2023/04/20 16:01:43;;;;;;;7.32;6.63;;;;;;;-145.79;43.19;77843.63;5252103;28;22023;-78
2023/04/20 16:04:14;;;;;;;6.72;6.05;;;;;;;-145.79;43.23;77845.75;5244673;28;20543;-75
2023/04/20 16:06:46;;;;;;;10.10;6.55;;;;;;;-145.79;43.84;77822.41;5244280;28;20025;-77
2023/04/20 16:09:18;;;;;;;7.32;6.53;;;;;;;-145.79;42.95;77801.22;5255570;28;20087;-78
2023/04/20 16:11:50;;;;;;;8.93;6.70;;;;;;;-145.79;42.16;77790.63;5263371;28;20068;-77
2023/04/20 16:14:21;;;;;;;7.63;6.93;;;;;;;-145.79;42.02;77763.06;5258044;28;20029;-78
2023/04/20 16:16:54;;;;;;;7.47;6.82;;;;;;;-145.79;40.56;77750.34;5261535;28;20478;-78
2023/04/20 16:19:25;;;;;;;8.13;7.32;;;;;;;-145.79;41.42;77724.91;5252904;28;20063;-76
2023/04/20 16:21:57;;;;;;;6.28;5.68;;;;;;;-145.79;40.39;77707.94;5263762;28;20076;-77
2023/04/20 16:24:28;;;;;;;7.28;6.60;;;;;;;-145.79;39.95;77701.59;5264370;28;20059;-77
2023/04/20 16:27:00;;;;;;;7.63;6.85;;;;;;;-145.79;39.87;77710.06;5264693;28;20029;-77
2023/04/20 16:29:31;;;;;;;7.28;6.57;;;;;;;-145.79;40.94;77707.94;5263672;28;20376;-77
2023/04/20 16:32:03;;;;;;;7.80;7.00;;;;;;;-145.79;40.20;77712.19;5254547;28;20032;-77
2023/04/20 16:34:34;;;;;;;8.20;6.30;;;;;;;-145.79;39.86;77720.66;5255037;28;20112;-75
2023/04/20 16:37:07;;;;;;;6.45;5.95;;;;;;;-145.79;39.39;77733.38;5271515;28;20131;-79
2023/04/20 16:39:39;;;;;;;5.97;5.38;;;;;;;-145.79;38.62;77703.72;5267317;28;20029;-79
2023/04/20 16:42:10;;;;;;;6.85;6.15;;;;;;;-145.79;38.68;77707.94;5270310;28;20329;-80
2023/04/20 16:44:42;;;;;;;7.63;6.18;;;;;;;-145.79;38.17;77691.00;5261155;28;20021;-77
2023/04/20 16:47:13;;;;;;;8.95;6.78;;;;;;;-145.79;37.81;77665.56;5258932;28;20140;-78
2023/04/20 16:49:45;;;;;;;6.90;6.20;;;;;;;-145.79;37.92;77657.06;5278844;28;20028;-78
2023/04/20 16:52:17;;;;;;;6.28;5.70;;;;;;;-145.79;37.77;77631.63;5248318;28;20167;-79
2023/04/20 16:54:48;;;;;;;5.80;5.30;;;;;;;-145.79;36.65;77633.75;5246145;28;20063;-79
